Time;durP1;ratioP1;P1;durP2;ratioP2;P2;SDS_P1;SDS_P2;PMS_P1;PMS_P2;Temp;Humidity;BMP_temperature;BMP_pressure;BME280_temperature;BME280_humidity;BME280_pressure;Samples;Min_cycle;Max_cycle;Signal;HPM_P1;HPM_P2
2023/06/25 00:01:10;;;;;;;;;12.67;12.67;;;;;22.76;74.72;101626.09;5037392;28;45414;-68
2023/06/25 00:03:35;;;;;;;;;20.00;20.00;;;;;22.54;74.75;101592.47;5037045;28;46302;-68
2023/06/25 00:06:01;;;;;;;;;21.33;18.67;;;;;22.80;74.76;101635.69;5037134;28;45440;-68
2023/06/25 00:08:26;;;;;;;;;18.67;16.67;;;;;22.65;75.10;101612.44;5037295;28;45357;-68
2023/06/25 00:10:51;;;;;;;;;22.33;20.67;;;;;22.71;75.70;101623.69;5037503;28;45373;-68
2023/06/25 00:13:17;;;;;;;;;24.00;22.00;;;;;22.60;76.45;101627.00;5036742;28;46363;-68
2023/06/25 00:15:42;;;;;;;;;23.00;21.00;;;;;22.54;75.86;101619.31;5037038;28;45426;-68
2023/06/25 00:18:08;;;;;;;;;23.00;20.67;;;;;22.56;76.72;101625.44;5037281;28;45372;-68
2023/06/25 00:20:34;;;;;;;;;23.67;22.67;;;;;22.51;76.37;101606.09;5037074;28;45399;-68
2023/06/25 00:22:59;;;;;;;;;21.67;19.33;;;;;22.49;76.95;101610.66;5036842;28;46181;-68
2023/06/25 00:25:26;;;;;;;;;27.00;22.00;;;;;22.39;76.50;101588.00;5036722;28;45432;-68
2023/06/25 00:27:52;;;;;;;;;23.67;22.67;;;;;22.43;77.16;101602.97;5036726;28;45319;-68
2023/06/25 00:30:17;;;;;;;;;28.67;25.00;;;;;22.39;75.61;101586.22;5036957;28;45242;-68
2023/06/25 00:32:44;;;;;;;;;28.67;24.00;;;;;22.40;77.73;101600.47;5036715;28;46263;-68
2023/06/25 00:35:10;;;;;;;;;29.00;22.00;;;;;22.30;78.27;101592.06;5036876;28;45257;-68
2023/06/25 00:37:39;;;;;;;;;25.00;23.33;;;;;22.27;78.03;101590.44;5036688;28;45452;-68
2023/06/25 00:40:05;;;;;;;;;33.67;27.67;;;;;22.30;78.08;101592.06;5036946;28;45348;-68
2023/06/25 00:42:41;;;;;;;;;31.67;29.00;;;;;22.25;78.33;101583.44;5036416;28;47597;-68
2023/06/25 00:45:10;;;;;;;;;27.00;25.67;;;;;22.24;78.95;101590.59;5036537;28;45388;-68
2023/06/25 00:47:37;;;;;;;;;26.00;22.67;;;;;22.27;78.67;101595.78;5036526;28;45243;-68
2023/06/25 00:50:03;;;;;;;;;28.33;25.00;;;;;22.20;78.56;101588.19;5036677;28;45440;-67
2023/06/25 00:52:29;;;;;;;;;30.00;25.00;;;;;22.24;77.30;101592.44;5036400;28;45364;-68
2023/06/25 00:54:54;;;;;;;;;23.33;21.67;;;;;22.20;79.40;101588.19;5036343;28;45424;-68
2023/06/25 00:57:21;;;;;;;;;23.00;21.67;;;;;21.88;79.57;101534.63;5036662;28;45286;-67
2023/06/25 00:59:48;;;;;;;;;24.33;22.00;;;;;22.15;79.45;101587.63;5036772;28;45298;-68
2023/06/25 01:02:38;;;;;;;;;23.33;23.00;;;;;22.12;78.88;101585.97;5036032;28;46626;-68
2023/06/25 01:05:13;;;;;;;;;28.33;23.67;;;;;22.09;79.37;101583.47;5036214;28;45424;-68
2023/06/25 01:07:44;;;;;;;;;28.00;23.67;;;;;22.07;79.34;101577.31;5036362;28;45279;-67
2023/06/25 01:10:10;;;;;;;;;28.33;22.67;;;;;22.05;79.45;101576.56;5036504;28;45301;-67
2023/06/25 01:12:36;;;;;;;;;25.33;23.00;;;;;21.89;80.44;101553.28;5039084;28;46578;-67
2023/06/25 01:15:03;;;;;;;;;27.67;26.67;;;;;22.00;79.79;101559.84;5039549;28;45381;-67
2023/06/25 01:17:29;;;;;;;;;28.33;25.00;;;;;22.01;80.10;101569.63;5039714;28;45428;-68
2023/06/25 01:19:54;;;;;;;;;28.00;26.33;;;;;21.94;80.58;101558.38;5039847;28;45509;-68
2023/06/25 01:22:30;;;;;;;;;29.00;25.00;;;;;21.92;80.04;101557.63;5039439;28;46642;-68
2023/06/25 01:24:59;;;;;;;;;31.67;30.67;;;;;21.69;80.97;101532.97;5039589;28;45371;-68
2023/06/25 01:27:25;;;;;;;;;31.33;28.67;;;;;21.87;80.40;101570.41;5039550;28;45294;-68
2023/06/25 01:29:50;;;;;;;;;24.00;24.00;;;;;21.82;81.21;101557.28;5039412;28;45413;-67
2023/06/25 01:32:17;;;;;;;;;29.00;26.00;;;;;21.90;81.30;101571.13;5039191;28;46929;-67
2023/06/25 01:34:43;;;;;;;;;24.67;22.00;;;;;21.84;81.64;101558.06;5039402;28;45476;-67
2023/06/25 01:37:09;;;;;;;;;27.00;22.67;;;;;21.79;81.57;101552.09;5039305;28;45372;-68
2023/06/25 01:39:34;;;;;;;;;25.67;25.00;;;;;21.81;81.74;101557.38;5039740;28;45294;-68
2023/06/25 01:42:00;;;;;;;;;27.00;25.00;;;;;21.76;80.24;101549.59;5039125;28;46211;-67
2023/06/25 01:44:27;;;;;;;;;32.67;28.67;;;;;21.70;81.72;101545.44;5039269;28;45471;-68
2023/06/25 01:46:53;;;;;;;;;30.67;25.00;;;;;21.61;82.39;101535.25;5039255;28;45452;-68
2023/06/25 01:49:19;;;;;;;;;29.00;25.00;;;;;21.58;82.60;101530.06;5039365;28;45203;-67
2023/06/25 01:51:44;;;;;;;;;29.67;26.67;;;;;21.61;82.80;101537.06;5039271;28;46229;-68
2023/06/25 01:54:10;;;;;;;;;30.33;26.67;;;;;21.56;83.25;101537.31;5039071;28;45242;-67
2023/06/25 01:56:35;;;;;;;;;29.33;26.67;;;;;21.54;83.38;101536.56;5039217;28;45386;-68
2023/06/25 01:59:00;;;;;;;;;35.00;31.33;;;;;21.50;83.42;101532.28;5039304;28;45333;-67
2023/06/25 02:01:26;;;;;;;;;33.33;23.00;;;;;21.52;83.65;101536.66;5038753;28;45536;-68
2023/06/25 02:03:51;;;;;;;;;29.33;28.33;;;;;21.45;83.93;101523.63;5038845;28;45326;-67
2023/06/25 02:06:16;;;;;;;;;30.00;25.67;;;;;21.41;84.25;101517.59;5038945;28;45508;-68
2023/06/25 02:08:42;;;;;;;;;27.33;25.33;;;;;21.38;83.78;101513.25;5039156;28;45380;-68
2023/06/25 02:11:08;;;;;;;;;31.33;27.33;;;;;21.47;83.84;101529.78;5038793;28;45236;-67
2023/06/25 02:13:34;;;;;;;;;31.00;29.33;;;;;21.45;84.23;101526.31;5038452;28;45290;-68
2023/06/25 02:16:00;;;;;;;;;24.67;24.00;;;;;21.42;83.96;101519.31;5037366;28;45267;-67
2023/06/25 02:18:25;;;;;;;;;34.00;29.00;;;;;21.40;84.27;101529.25;5038862;28;45397;-68
2023/06/25 02:20:51;;;;;;;;;27.00;22.67;;;;;21.35;84.15;101518.78;5038407;28;45433;-68
2023/06/25 02:23:16;;;;;;;;;32.67;30.33;;;;;21.34;83.93;101511.69;5037385;28;45366;-68
2023/06/25 02:25:42;;;;;;;;;26.67;26.67;;;;;21.32;84.70;101508.25;5038444;28;45317;-67
2023/06/25 02:28:07;;;;;;;;;31.67;29.00;;;;;21.33;84.32;101518.03;5038658;28;45420;-67
2023/06/25 02:30:32;;;;;;;;;30.67;27.67;;;;;21.28;83.93;101503.16;5038169;28;46526;-67
2023/06/25 02:32:57;;;;;;;;;34.33;29.67;;;;;21.35;84.12;101509.91;5038427;28;45401;-68
2023/06/25 02:35:23;;;;;;;;;28.00;26.33;;;;;21.34;84.19;101508.16;5038660;28;45258;-68
2023/06/25 02:37:48;;;;;;;;;29.67;24.33;;;;;21.25;84.06;101498.81;5038581;28;45467;-67
2023/06/25 02:40:14;;;;;;;;;34.33;28.00;;;;;21.32;83.86;101504.69;5038480;28;45453;-67
2023/06/25 02:42:39;;;;;;;;;29.67;28.00;;;;;21.27;83.79;101496.06;5038141;28;45456;-68
2023/06/25 02:45:05;;;;;;;;;31.00;25.00;;;;;21.28;83.96;101495.13;5038400;28;45460;-67
2023/06/25 02:47:30;;;;;;;;;27.33;25.33;;;;;21.09;84.60;101477.38;5038373;28;45310;-67
2023/06/25 02:49:55;;;;;;;;;31.00;29.00;;;;;21.12;84.49;101473.69;5037916;28;45430;-67
2023/06/25 02:52:21;;;;;;;;;27.67;26.67;;;;;21.06;84.82;101474.88;5038204;28;45237;-67
2023/06/25 02:54:46;;;;;;;;;30.67;24.33;;;;;21.15;84.46;101492.25;5038187;28;45365;-67
2023/06/25 02:57:11;;;;;;;;;25.00;25.00;;;;;21.11;84.79;101488.88;5038212;28;45264;-67
2023/06/25 02:59:37;;;;;;;;;31.67;27.00;;;;;21.08;84.58;101480.16;5037844;28;46298;-67
2023/06/25 03:02:02;;;;;;;;;29.33;26.00;;;;;21.11;84.77;101488.88;5037805;28;45263;-68
2023/06/25 03:04:27;;;;;;;;;34.00;27.00;;;;;21.12;84.63;101487.06;5038066;28;45351;-68
2023/06/25 03:06:53;;;;;;;;;24.33;21.67;;;;;21.06;85.06;101482.91;5037929;28;45368;-67
2023/06/25 03:09:18;;;;;;;;;29.67;28.67;;;;;21.00;85.34;101481.44;5037908;28;45442;-68
2023/06/25 03:11:43;;;;;;;;;34.00;26.00;;;;;20.93;86.03;101479.19;5037740;28;45338;-68
2023/06/25 03:14:09;;;;;;;;;24.67;22.00;;;;;20.93;85.45;101477.38;5037575;28;45491;-67
2023/06/25 03:16:34;;;;;;;;;29.00;24.33;;;;;20.93;85.89;101476.53;5038087;28;45378;-67
2023/06/25 03:19:00;;;;;;;;;28.67;23.67;;;;;20.93;85.21;101465.81;5036874;28;46552;-68
2023/06/25 03:21:26;;;;;;;;;27.00;26.67;;;;;20.88;85.27;101458.00;5036207;28;45374;-68
2023/06/25 03:23:51;;;;;;;;;33.67;26.33;;;;;20.96;84.66;101469.16;5037259;28;45488;-64
2023/06/25 03:26:17;;;;;;;;;27.67;24.00;;;;;20.70;85.25;101433.97;5037848;28;45327;-63
2023/06/25 03:28:42;;;;;;;;;33.33;26.00;;;;;20.84;84.74;101454.66;5037626;28;45887;-65
2023/06/25 03:31:07;;;;;;;;;28.33;25.67;;;;;20.79;84.89;101448.66;5037469;28;45425;-65
2023/06/25 03:33:32;;;;;;;;;36.67;29.67;;;;;20.89;84.48;101462.41;5036959;28;45309;-67
2023/06/25 03:35:58;;;;;;;;;37.33;32.00;;;;;20.80;85.02;101466.47;5037538;28;45166;-67
2023/06/25 03:38:23;;;;;;;;;33.67;30.67;;;;;20.71;84.68;101461.63;5037197;28;46102;-66
2023/06/25 03:40:48;;;;;;;;;33.67;29.00;;;;;20.76;85.78;101470.25;5037561;28;45463;-66
2023/06/25 03:43:14;;;;;;;;;34.33;29.67;;;;;20.72;85.24;101465.16;5037457;28;45325;-66
2023/06/25 03:45:39;;;;;;;;;28.33;28.00;;;;;20.51;86.02;101441.25;5037401;28;45417;-66
2023/06/25 03:48:05;;;;;;;;;33.33;29.33;;;;;20.64;86.30;101465.53;5037249;28;46126;-66
2023/06/25 03:50:30;;;;;;;;;32.33;29.33;;;;;20.63;86.31;101466.47;5036966;28;45299;-66
2023/06/25 03:52:56;;;;;;;;;33.33;25.67;;;;;20.62;86.09;101456.72;5037479;28;45436;-67
2023/06/25 03:55:21;;;;;;;;;30.33;25.00;;;;;20.68;86.00;101461.75;5037409;28;45463;-67
2023/06/25 03:57:47;;;;;;;;;27.67;25.00;;;;;20.49;85.98;101435.97;5037246;28;46476;-66
2023/06/25 04:00:12;;;;;;;;;29.67;25.67;;;;;20.63;86.33;101453.94;5036912;28;45465;-66
2023/06/25 04:02:38;;;;;;;;;31.67;28.33;;;;;20.63;86.81;101461.13;5037322;28;45537;-66
2023/06/25 04:05:04;;;;;;;;;12.33;12.33;;;;;20.56;86.70;101449.88;5037358;28;45393;-66
2023/06/25 04:07:29;;;;;;;;;33.67;27.67;;;;;20.55;86.73;101440.16;5036982;28;46138;-67
2023/06/25 04:09:54;;;;;;;;;30.00;25.00;;;;;20.63;87.23;101458.44;5036884;28;45349;-66
2023/06/25 04:12:19;;;;;;;;;26.67;25.33;;;;;20.34;87.12;101418.06;5036633;28;45825;-66
2023/06/25 04:14:45;;;;;;;;;30.00;25.33;;;;;20.35;86.69;101411.78;5037180;28;45326;-66
2023/06/25 04:17:10;;;;;;;;;30.33;29.67;;;;;20.67;86.33;101454.69;5036682;28;47498;-66
2023/06/25 04:19:37;;;;;;;;;31.33;27.00;;;;;20.70;86.48;101466.09;5036980;28;45471;-66
2023/06/25 04:22:03;;;;;;;;;34.33;28.67;;;;;20.67;86.21;101460.91;5036917;28;45370;-67
2023/06/25 04:24:28;;;;;;;;;30.33;24.67;;;;;20.70;86.35;101466.09;5037122;28;45232;-69
2023/06/25 04:26:53;;;;;;;;;29.67;27.67;;;;;20.69;86.51;101471.53;5036453;28;45501;-66
2023/06/25 04:29:19;;;;;;;;;29.00;26.67;;;;;20.66;85.68;101461.84;5036512;28;45305;-66
2023/06/25 04:31:44;;;;;;;;;26.67;25.00;;;;;20.79;85.51;101470.09;5036972;28;45317;-66
2023/06/25 04:34:09;;;;;;;;;31.67;25.33;;;;;20.78;85.23;101464.81;5037044;28;45432;-66
2023/06/25 04:36:35;;;;;;;;;34.00;27.33;;;;;20.78;85.30;101468.38;5036638;28;46256;-66
2023/06/25 04:39:00;;;;;;;;;31.67;27.67;;;;;20.81;86.00;101462.84;5036439;28;45309;-66
2023/06/25 04:41:25;;;;;;;;;27.33;24.33;;;;;20.84;86.31;101467.16;5036482;28;45882;-66
2023/06/25 04:43:51;;;;;;;;;25.00;19.33;;;;;20.89;85.72;101465.09;5036596;28;45202;-67
2023/06/25 04:46:16;;;;;;;;;24.00;23.00;;;;;20.89;85.70;101464.25;5037933;28;45450;-67
2023/06/25 04:48:45;;;;;;;;;27.67;25.33;;;;;20.93;85.15;101468.50;5039774;28;45484;-66
2023/06/25 04:51:11;;;;;;;;;50.33;38.33;;;;;20.89;84.69;101458.88;5040159;28;45385;-66
2023/06/25 04:53:37;;;;;;;;;30.67;30.67;;;;;20.76;84.95;101434.59;5040246;28;45321;-66
2023/06/25 04:56:02;;;;;;;;;26.00;25.67;;;;;20.96;84.22;101449.56;5039921;28;45567;-66
2023/06/25 04:58:28;;;;;;;;;26.33;24.33;;;;;20.84;84.00;101427.88;5039874;28;45425;-66
2023/06/25 05:00:53;;;;;;;;;30.00;22.67;;;;;21.08;83.67;101461.41;5039834;28;45459;-66
2023/06/25 05:03:18;;;;;;;;;24.50;19.50;;;;;21.17;82.59;101461.78;5040243;28;45226;-67
2023/06/25 05:05:43;;;;;;;;;28.00;26.00;;;;;21.20;83.05;101460.72;5039763;28;45568;-66
2023/06/25 05:08:09;;;;;;;;;25.67;22.33;;;;;21.27;82.55;101455.88;5039880;28;45517;-66
2023/06/25 05:10:34;;;;;;;;;27.67;24.00;;;;;21.33;81.91;101456.41;5039806;28;45516;-66
2023/06/25 05:13:00;;;;;;;;;24.33;20.33;;;;;21.34;80.52;101454.59;5039874;28;45504;-66
2023/06/25 05:15:25;;;;;;;;;21.00;20.33;;;;;21.26;80.58;101443.44;5039616;28;46130;-66
2023/06/25 05:17:51;;;;;;;;;22.00;20.33;;;;;21.33;79.94;101468.91;5039777;28;45286;-66
2023/06/25 05:20:16;;;;;;;;;23.00;19.67;;;;;21.29;80.24;101457.53;5039864;28;45758;-66
2023/06/25 05:22:41;;;;;;;;;24.67;20.33;;;;;21.47;79.43;101462.78;5039998;28;45600;-66
2023/06/25 05:25:07;;;;;;;;;28.33;21.33;;;;;21.50;78.53;101455.44;5039122;28;45276;-66
2023/06/25 05:27:32;;;;;;;;;22.33;18.00;;;;;21.37;79.13;101444.53;5039633;28;45223;-66
2023/06/25 05:29:58;;;;;;;;;24.00;18.67;;;;;21.47;78.77;101460.97;5054815;28;45235;-66
2023/06/25 05:32:23;;;;;;;;;18.33;18.33;;;;;21.45;78.84;101460.19;5039868;28;45315;-66
2023/06/25 05:34:48;;;;;;;;;28.00;21.00;;;;;21.50;78.72;101460.78;5039157;28;46371;-66
2023/06/25 05:37:14;;;;;;;;;22.33;20.00;;;;;21.53;79.16;101460.63;5038836;28;45475;-66
2023/06/25 05:39:39;;;;;;;;;25.33;20.00;;;;;21.58;79.10;101460.41;5039700;28;45322;-66
2023/06/25 05:42:05;;;;;;;;;22.67;22.67;;;;;21.54;79.02;101450.81;5039577;28;45465;-66
2023/06/25 05:44:30;;;;;;;;;24.67;18.67;;;;;21.65;79.05;101455.53;5039186;28;45486;-66
2023/06/25 05:46:55;;;;;;;;;27.33;24.33;;;;;21.70;78.32;101462.34;5038982;28;45425;-66
2023/06/25 05:49:21;;;;;;;;;17.33;17.33;;;;;21.57;77.83;101434.53;5038968;28;45316;-67
2023/06/25 05:51:46;;;;;;;;;21.00;19.33;;;;;21.78;77.55;101458.34;5039565;28;45323;-66
2023/06/25 05:54:11;;;;;;;;;15.00;15.00;;;;;21.65;76.65;101424.22;5039088;28;45397;-66
2023/06/25 05:56:37;;;;;;;;;20.67;17.67;;;;;21.84;76.85;101450.84;5038907;28;45392;-66
2023/06/25 05:59:02;;;;;;;;;22.00;17.67;;;;;21.94;76.43;101452.94;5038649;28;45399;-66
2023/06/25 06:01:28;;;;;;;;;17.67;16.00;;;;;22.01;76.04;101438.22;5039250;28;45359;-66
2023/06/25 06:03:53;;;;;;;;;16.33;16.00;;;;;22.08;75.11;101434.22;5039129;28;46316;-66
2023/06/25 06:06:18;;;;;;;;;19.00;19.00;;;;;22.24;74.01;101445.72;5038859;28;45176;-66
2023/06/25 06:08:44;;;;;;;;;18.00;16.33;;;;;22.24;72.04;101443.06;5038721;28;45392;-66
2023/06/25 06:11:10;;;;;;;;;22.33;17.33;;;;;22.22;73.06;101436.94;5039328;28;45503;-66
2023/06/25 06:13:36;;;;;;;;;15.33;13.67;;;;;22.26;72.92;101440.28;5038592;28;46141;-66
2023/06/25 06:16:01;;;;;;;;;17.67;15.67;;;;;22.33;72.31;101443.50;5038499;28;45409;-66
2023/06/25 06:18:26;;;;;;;;;22.33;15.67;;;;;22.39;71.95;101443.09;5038374;28;45389;-66
2023/06/25 06:20:52;;;;;;;;;13.67;12.00;;;;;22.45;70.26;101440.03;5039084;28;45259;-66
2023/06/25 06:23:17;;;;;;;;;16.33;13.67;;;;;22.67;69.21;101438.69;5038786;28;45374;-66
2023/06/25 06:25:42;;;;;;;;;15.33;12.33;;;;;22.76;67.17;101430.94;5038287;28;45536;-66
2023/06/25 06:28:08;;;;;;;;;12.00;10.00;;;;;22.66;65.52;101415.53;5038711;28;45380;-66
2023/06/25 06:30:33;;;;;;;;;11.00;10.00;;;;;22.80;66.95;101446.84;5038085;28;45521;-66
2023/06/25 06:32:58;;;;;;;;;9.33;7.00;;;;;22.79;65.98;101440.63;5038437;28;46294;-67
2023/06/25 06:35:24;;;;;;;;;10.00;9.00;;;;;22.80;65.49;101442.34;5038670;28;45498;-66
2023/06/25 06:37:49;;;;;;;;;11.00;10.00;;;;;22.78;65.87;101437.06;5038999;28;45499;-66
2023/06/25 06:40:14;;;;;;;;;8.67;8.33;;;;;22.81;65.21;101432.47;5046810;28;45396;-66
2023/06/25 06:42:40;;;;;;;;;8.33;7.00;;;;;22.90;66.01;101439.94;5038591;28;45687;-66
2023/06/25 06:45:05;;;;;;;;;9.00;8.00;;;;;22.88;65.75;101437.34;5038434;28;45474;-66
2023/06/25 06:47:31;;;;;;;;;9.00;9.00;;;;;22.99;66.69;101441.16;5038660;28;45262;-66
2023/06/25 06:49:56;;;;;;;;;15.00;11.33;;;;;22.90;66.19;101416.66;5038654;28;45424;-66
2023/06/25 06:52:24;;;;;;;;;9.67;9.33;;;;;23.06;66.03;101437.13;5038159;28;45471;-66
2023/06/25 06:54:49;;;;;;;;;17.00;10.00;;;;;23.14;65.86;101437.53;5038648;28;45395;-66
2023/06/25 06:57:15;;;;;;;;;7.67;7.33;;;;;23.16;65.96;101430.22;5038573;28;45537;-66
2023/06/25 06:59:40;;;;;;;;;12.33;9.33;;;;;23.14;65.48;101424.09;5038295;28;45518;-67
2023/06/25 07:02:05;;;;;;;;;8.67;8.67;;;;;23.24;65.86;101424.38;5038023;28;45826;-67
2023/06/25 07:04:31;;;;;;;;;11.00;10.33;;;;;23.28;64.92;101420.53;5038440;28;45233;-67
2023/06/25 07:06:56;;;;;;;;;12.00;10.00;;;;;23.39;64.92;101427.84;5038040;28;45202;-67
2023/06/25 07:09:24;;;;;;;;;9.00;9.00;;;;;23.45;65.45;101431.00;5037742;28;45480;-67
2023/06/25 07:11:49;;;;;;;;;8.67;7.00;;;;;23.75;64.94;101421.00;5037735;28;46623;-67
2023/06/25 07:14:15;;;;;;;;;9.00;6.00;;;;;24.66;62.76;101415.59;5037763;28;45525;-67
2023/06/25 07:16:41;;;;;;;;;10.33;7.67;;;;;26.00;58.66;101420.16;5038423;28;45389;-66
2023/06/25 07:19:07;;;;;;;;;7.33;7.00;;;;;26.32;56.52;101422.16;5037914;28;45466;-67
2023/06/25 07:21:32;;;;;;;;;10.33;8.33;;;;;26.24;54.33;101423.63;5037372;28;45317;-66
2023/06/25 07:23:58;;;;;;;;;8.33;6.33;;;;;26.09;53.44;101410.47;5037667;28;45447;-68
2023/06/25 07:26:23;;;;;;;;;5.33;3.00;;;;;25.93;54.16;101421.56;5037760;28;45292;-68
2023/06/25 07:28:48;;;;;;;;;10.00;6.67;;;;;25.77;54.42;101405.69;5037693;28;45511;-68
2023/06/25 07:31:14;;;;;;;;;8.67;5.67;;;;;25.89;54.10;101411.03;5036843;28;46377;-69
2023/06/25 07:33:39;;;;;;;;;10.00;6.33;;;;;25.97;54.28;101412.25;5037930;28;45447;-68
2023/06/25 07:36:05;;;;;;;;;8.33;6.67;;;;;26.14;53.77;101422.63;5037965;28;45440;-66
2023/06/25 07:38:30;;;;;;;;;10.33;8.00;;;;;26.48;51.72;101392.09;5045411;28;45381;-66
2023/06/25 07:40:55;;;;;;;;;5.00;5.00;;;;;26.32;51.44;101393.31;5037663;28;46324;-68
2023/06/25 07:43:21;;;;;;;;;8.67;6.00;;;;;26.24;52.31;101414.66;5037727;28;45234;-68
2023/06/25 07:45:46;;;;;;;;;7.00;7.00;;;;;25.89;52.37;101383.16;5037695;28;45242;-68
2023/06/25 07:48:11;;;;;;;;;7.00;6.67;;;;;25.93;53.91;101416.19;5037574;28;45156;-68
2023/06/25 07:50:37;;;;;;;;;9.00;6.00;;;;;25.78;53.44;101413.69;5037047;28;47028;-68
2023/06/25 07:53:02;;;;;;;;;6.00;6.00;;;;;25.73;53.54;101410.47;5037373;28;45428;-68
2023/06/25 07:55:27;;;;;;;;;7.00;6.33;;;;;25.70;54.44;101410.69;5037537;28;45424;-68
2023/06/25 07:57:53;;;;;;;;;5.00;5.00;;;;;25.65;54.05;101407.50;5038100;28;45508;-68
2023/06/25 08:00:19;;;;;;;;;8.00;4.00;;;;;26.07;53.80;101399.81;5036883;28;45990;-68
2023/06/25 08:02:44;;;;;;;;;6.67;6.67;;;;;26.33;51.61;101402.25;5037559;28;46681;-68
2023/06/25 08:05:10;;;;;;;;;7.00;5.00;;;;;26.06;51.57;101371.94;5037396;28;45488;-68
2023/06/25 08:07:36;;;;;;;;;6.00;4.33;;;;;26.13;51.93;101395.78;5037274;28;45474;-68
2023/06/25 08:10:02;;;;;;;;;7.00;5.33;;;;;26.06;53.12;101398.91;5036920;28;46123;-65
2023/06/25 08:12:28;;;;;;;;;7.33;7.33;;;;;25.98;54.10;101395.94;5042134;28;45456;-68
2023/06/25 08:14:53;;;;;;;;;8.00;6.00;;;;;26.06;55.43;101406.16;5039428;28;45306;-68
2023/06/25 08:17:18;;;;;;;;;5.00;5.00;;;;;26.13;53.24;101387.66;5037045;28;45467;-67
2023/06/25 08:19:44;;;;;;;;;15.67;15.00;;;;;26.19;52.18;101398.81;5045032;28;45500;-68
2023/06/25 08:22:09;;;;;;;;;6.67;6.33;;;;;26.18;51.90;101388.16;5049797;28;45274;-69
2023/06/25 08:24:34;;;;;;;;;6.67;6.00;;;;;26.17;51.73;101392.69;5047367;27;45233;-68
2023/06/25 08:27:00;;;;;;;;;6.67;4.00;;;;;26.22;51.80;101397.72;5048049;28;45272;-69
2023/06/25 08:29:26;;;;;;;;;6.67;5.67;;;;;26.29;52.07;101404.38;5050714;28;46539;-68
2023/06/25 08:31:51;;;;;;;;;4.67;4.67;;;;;26.32;50.24;101389.78;5040332;28;46012;-68
2023/06/25 08:34:16;;;;;;;;;7.00;5.33;;;;;26.36;50.13;101386.69;5040593;28;45278;-68
2023/06/25 08:36:42;;;;;;;;;6.00;3.33;;;;;26.38;50.44;101387.41;5052292;28;45222;-68
2023/06/25 08:39:07;;;;;;;;;6.67;5.00;;;;;26.52;50.63;101385.44;5052116;28;45599;-66
2023/06/25 08:41:34;;;;;;;;;5.00;5.00;;;;;27.19;49.70;101395.34;5048262;28;45524;-66
2023/06/25 08:44:00;;;;;;;;;6.33;5.33;;;;;27.22;48.90;101365.31;5045668;28;45509;-67
2023/06/25 08:46:27;;;;;;;;;20.67;19.67;;;;;27.44;47.75;101377.09;5050944;28;45250;-66
2023/06/25 08:48:54;;;;;;;;;7.33;6.00;;;;;27.46;48.71;101383.22;5058549;28;47410;-66
2023/06/25 08:51:23;;;;;;;;;8.00;6.33;;;;;27.40;49.38;101376.47;5051602;28;45722;-66
2023/06/25 08:53:49;;;;;;;;;5.00;5.00;;;;;27.38;48.99;101369.50;5047092;28;45681;-64
2023/06/25 08:56:16;;;;;;;;;7.00;7.00;;;;;27.37;48.29;101370.47;5053519;28;45366;-63
2023/06/25 08:58:41;;;;;;;;;4.00;4.00;;;;;27.30;47.53;101361.13;5048521;28;45579;-64
2023/06/25 09:01:07;;;;;;;;;5.00;5.00;;;;;27.36;46.96;101353.41;5047014;28;45361;-65
2023/06/25 09:03:32;;;;;;;;;6.00;6.00;;;;;27.50;47.39;101360.31;5054673;28;45420;-66
2023/06/25 09:05:58;;;;;;;;;6.67;5.67;;;;;27.49;47.80;101358.59;5050240;28;45558;-66
2023/06/25 09:08:25;;;;;;;;;10.00;10.00;;;;;27.49;48.28;101369.41;5044945;28;46625;-66
2023/06/25 09:10:53;;;;;;;;;8.00;7.50;;;;;27.48;46.81;101366.84;5047689;28;45466;-66
2023/06/25 09:13:26;;;;;;;;;6.00;6.00;;;;;27.49;47.98;101350.47;5046969;28;45206;-66
2023/06/25 09:15:59;;;;;;;;;6.00;6.00;;;;;27.86;47.26;101362.72;5040209;28;45468;-66
2023/06/25 09:18:25;;;;;;;;;5.67;5.67;;;;;28.17;46.65;101355.50;5038960;28;46700;-66
2023/06/25 09:20:50;;;;;;;;;6.67;6.67;;;;;28.15;45.64;101343.97;5047481;28;45266;-66
2023/06/25 09:23:20;;;;;;;;;7.33;7.33;;;;;28.19;46.75;101355.34;5047476;28;45450;-66
2023/06/25 09:25:46;;;;;;;;;7.00;7.00;;;;;28.26;45.99;101354.72;5047100;28;45317;-64
2023/06/25 09:28:11;;;;;;;;;7.33;6.00;;;;;28.23;45.33;101352.28;5057604;28;46672;-67
2023/06/25 09:30:38;;;;;;;;;6.00;6.00;;;;;28.29;44.60;101346.31;5044590;28;45764;-67
2023/06/25 09:33:05;;;;;;;;;4.00;2.67;;;;;28.63;44.68;101350.59;5039105;28;45221;-67
2023/06/25 09:35:31;;;;;;;;;8.00;8.00;;;;;28.85;44.32;101333.22;5044137;28;45499;-67
2023/06/25 09:37:57;;;;;;;;;7.67;6.67;;;;;29.37;43.13;101333.00;5042696;28;45351;-68
2023/06/25 09:40:22;;;;;;;;;7.00;7.00;;;;;30.83;42.06;101344.38;5039855;28;45234;-67
2023/06/25 09:42:48;;;;;;;;;7.67;7.67;;;;;33.20;40.00;101331.53;5034710;28;45520;-68
2023/06/25 09:45:15;;;;;;;;;9.00;8.00;;;;;35.95;35.33;101347.22;5039362;28;45625;-68
2023/06/25 09:47:45;;;;;;;;;7.33;7.33;;;;;38.37;31.39;101334.88;5039100;28;46864;-68
2023/06/25 09:50:17;;;;;;;;;7.00;7.00;;;;;40.64;29.45;101342.25;5046753;28;45369;-64
2023/06/25 09:52:48;;;;;;;;;6.67;6.67;;;;;42.42;27.54;101344.75;5038377;28;45519;-66
2023/06/25 09:55:16;;;;;;;;;7.00;7.00;;;;;43.97;25.80;101343.16;5039577;28;45599;-63
2023/06/25 09:57:43;;;;;;;;;7.00;7.00;;;;;45.32;22.79;101334.38;5039203;28;46050;-66
2023/06/25 10:00:10;;;;;;;;;9.25;9.25;;;;;46.39;21.76;101339.78;5039417;28;45351;-66
2023/06/25 10:02:36;;;;;;;;;10.00;9.00;;;;;47.64;21.59;101331.44;5041870;28;45255;-66
2023/06/25 10:05:03;;;;;;;;;6.50;6.50;;;;;48.68;21.65;101338.28;5043554;28;45420;-66
2023/06/25 10:07:30;;;;;;;;;5.25;5.25;;;;;49.43;19.84;101329.34;5038933;28;46074;-66
2023/06/25 10:09:55;;;;;;;;;6.75;5.75;;;;;50.19;21.33;101333.00;5038651;28;45639;-66
2023/06/25 10:12:21;;;;;;;;;8.50;7.75;;;;;50.40;18.52;101324.50;5038927;28;45270;-67
2023/06/25 10:14:48;;;;;;;;;9.25;7.25;;;;;51.17;18.45;101324.78;5039184;28;45586;-66
2023/06/25 10:17:14;;;;;;;;;9.00;9.00;;;;;51.96;17.23;101317.16;5036454;28;45510;-66
2023/06/25 10:19:51;;;;;;;;;8.50;8.50;;;;;52.45;17.80;101321.56;5037620;28;45499;-67
2023/06/25 10:22:24;;;;;;;;;6.25;6.25;;;;;52.88;17.30;101324.22;5038814;28;45422;-67
2023/06/25 10:24:51;;;;;;;;;7.50;7.50;;;;;53.30;17.43;101315.06;5038703;28;45337;-66
2023/06/25 10:27:25;;;;;;;;;5.75;5.75;;;;;53.37;16.55;101321.16;5038315;28;46313;-67
2023/06/25 10:29:56;;;;;;;;;7.25;7.25;;;;;53.62;15.92;101316.97;5038240;28;45285;-67
2023/06/25 10:32:23;;;;;;;;;8.00;8.00;;;;;53.56;15.94;101304.97;5038824;28;45424;-67
2023/06/25 10:34:58;;;;;;;;;7.75;6.50;;;;;53.66;16.16;101309.56;5038440;28;45292;-67
2023/06/25 10:37:31;;;;;;;;;7.50;6.50;;;;;53.63;15.56;101306.56;5037962;28;45457;-67
2023/06/25 10:40:08;;;;;;;;;7.50;7.50;;;;;53.48;17.00;101305.72;5038050;28;45472;-67
2023/06/25 10:42:37;;;;;;;;;7.00;6.00;;;;;53.55;14.72;101296.84;5038475;28;45445;-69
2023/06/25 10:45:03;;;;;;;;;10.00;9.25;;;;;53.49;15.27;101282.03;5037629;28;45371;-68
2023/06/25 10:47:29;;;;;;;;;4.50;4.50;;;;;53.61;14.58;101289.94;5037263;28;45546;-68
2023/06/25 10:49:55;;;;;;;;;9.00;9.00;;;;;53.56;15.18;101285.25;5038046;28;45540;-68
2023/06/25 10:52:22;;;;;;;;;10.00;10.00;;;;;53.64;14.57;101278.06;5038295;28;45397;-69
2023/06/25 10:54:48;;;;;;;;;7.50;7.50;;;;;53.71;14.66;101277.66;5038424;28;45478;-68
2023/06/25 10:57:15;;;;;;;;;6.50;6.50;;;;;53.47;15.85;101275.88;5038103;28;45444;-69
2023/06/25 10:59:45;;;;;;;;;7.00;7.00;;;;;53.07;15.25;101267.94;5038354;28;45317;-67
2023/06/25 11:02:21;;;;;;;;;7.75;7.75;;;;;52.39;15.34;101273.00;5038055;28;45514;-68
2023/06/25 11:04:51;;;;;;;;;7.50;7.50;;;;;51.48;15.81;101245.84;5033301;28;45389;-69
2023/06/25 11:07:21;;;;;;;;;9.00;9.00;;;;;50.16;15.62;101257.94;5036961;28;46496;-66
2023/06/25 11:09:56;;;;;;;;;8.25;8.25;;;;;48.59;17.07;101256.94;5024162;28;45424;-69